Time;durP1;ratioP1;P1;durP2;ratioP2;P2;SDS_P1;SDS_P2;PMS_P1;PMS_P2;Temp;Humidity;BMP_temperature;BMP_pressure;BME280_temperature;BME280_humidity;BME280_pressure;Samples;Min_cycle;Max_cycle;Signal;HPM_P1;HPM_P2
2023/01/10 00:00:36;;;;;;;8.90;5.03;;;27.20;92.60;;;;;;5125268;28;20024;-57
2023/01/10 00:03:08;;;;;;;10.05;5.55;;;27.10;92.70;;;;;;5126180;28;20023;-57
2023/01/10 00:05:37;;;;;;;11.15;5.35;;;27.10;93.00;;;;;;5126374;28;20341;-59
2023/01/10 00:08:05;;;;;;;14.27;6.57;;;27.00;93.10;;;;;;5126449;28;20027;-57
2023/01/10 00:10:33;;;;;;;8.77;5.88;;;27.00;93.30;;;;;;5126140;28;20251;-59
2023/01/10 00:15:45;;;;;;;12.88;7.35;;;27.00;93.40;;;;;;5126175;28;20054;-55
2023/01/10 00:18:11;;;;;;;14.18;7.13;;;26.90;93.30;;;;;;5125882;28;20027;-59
2023/01/10 00:20:39;;;;;;;16.77;7.72;;;26.90;93.40;;;;;;5125996;28;20060;-57
2023/01/10 00:23:05;;;;;;;11.73;7.15;;;26.90;93.50;;;;;;5126240;28;20087;-55
2023/01/10 00:25:35;;;;;;;11.45;6.10;;;26.80;93.50;;;;;;5125743;28;20031;-56
2023/01/10 00:30:43;;;;;;;9.85;5.10;;;26.80;93.40;;;;;;5125692;28;20032;-55
2023/01/10 00:33:16;;;;;;;7.50;4.85;;;26.80;93.30;;;;;;5126009;28;20032;-57
2023/01/10 00:35:42;;;;;;;11.70;4.90;;;26.80;93.30;;;;;;5125792;28;20073;-59
2023/01/10 00:38:09;;;;;;;11.02;4.30;;;26.80;93.30;;;;;;5125756;28;20023;-59
2023/01/10 00:40:35;;;;;;;8.15;4.20;;;26.80;93.30;;;;;;5125651;28;20034;-58
2023/01/10 00:45:47;;;;;;;7.70;3.58;;;26.80;93.40;;;;;;5125626;28;20107;-53
2023/01/10 00:48:14;;;;;;;7.63;4.10;;;26.80;93.60;;;;;;5125386;28;20245;-54
2023/01/10 00:50:41;;;;;;;8.55;3.80;;;26.70;93.60;;;;;;5125390;28;20087;-53
2023/01/10 00:53:08;;;;;;;10.45;3.55;;;26.70;93.60;;;;;;5125558;28;20051;-57
2023/01/10 00:55:36;;;;;;;9.50;4.22;;;26.70;93.50;;;;;;5125300;28;20019;-56
2023/01/10 00:58:03;;;;;;;8.82;4.38;;;26.70;93.60;;;;;;5125436;28;20079;-57
2023/01/10 01:00:30;;;;;;;8.27;4.05;;;26.70;93.60;;;;;;5125398;28;20032;-56
2023/01/10 01:02:59;;;;;;;8.07;4.43;;;26.80;93.60;;;;;;5125333;28;20053;-56
2023/01/10 01:05:26;;;;;;;8.82;4.60;;;26.70;93.60;;;;;;5125087;28;20056;-50
2023/01/10 01:07:53;;;;;;;12.52;5.07;;;26.70;93.80;;;;;;5125310;28;20034;-58
2023/01/10 01:10:25;;;;;;;11.20;4.85;;;26.60;93.80;;;;;;5124558;28;20041;-56
2023/01/10 01:13:04;;;;;;;11.10;5.05;;;26.70;93.90;;;;;;5124969;28;20084;-55
2023/01/10 01:15:36;;;;;;;8.88;4.68;;;26.70;94.00;;;;;;5124932;28;20027;-56
2023/01/10 01:18:03;;;;;;;11.55;4.85;;;26.70;94.10;;;;;;5124996;28;20025;-54
2023/01/10 01:20:31;;;;;;;11.13;4.93;;;26.60;94.10;;;;;;5124803;28;20070;-56
2023/01/10 01:22:57;;;;;;;8.70;4.60;;;26.60;94.20;;;;;;5125012;28;20064;-56
2023/01/10 01:25:24;;;;;;;8.55;4.32;;;26.60;94.20;;;;;;5124688;28;20027;-56
2023/01/10 01:27:51;;;;;;;10.25;4.40;;;26.60;94.20;;;;;;5124820;28;20265;-55
2023/01/10 01:30:17;;;;;;;6.80;4.15;;;26.60;94.20;;;;;;5124650;28;20031;-54
2023/01/10 01:32:44;;;;;;;11.27;4.50;;;26.60;94.30;;;;;;5124822;28;20024;-55
2023/01/10 01:35:14;;;;;;;30.10;24.48;;;26.60;94.40;;;;;;5124431;28;20024;-56
2023/01/10 01:37:42;;;;;;;21.75;17.23;;;26.60;94.40;;;;;;5124535;28;20028;-50
2023/01/10 01:40:17;;;;;;;24.30;20.83;;;26.60;94.50;;;;;;5122631;28;20300;-48
2023/01/10 01:42:44;;;;;;;53.83;48.00;;;26.60;94.50;;;;;;5124550;28;20031;-50
2023/01/10 01:45:14;;;;;;;46.13;39.95;;;26.60;94.60;;;;;;5123078;28;20028;-44
2023/01/10 01:47:48;;;;;;;31.85;24.83;;;26.60;94.60;;;;;;5124410;28;20347;-50
2023/01/10 01:50:31;;;;;;;52.65;45.55;;;26.60;94.60;;;;;;5124351;28;20035;-48
2023/01/10 01:53:01;;;;;;;31.73;26.60;;;26.60;94.60;;;;;;5124519;28;20011;-49
2023/01/10 01:55:31;;;;;;;17.05;12.57;;;26.50;94.60;;;;;;5121046;28;20058;-50
2023/01/10 01:58:03;;;;;;;23.70;10.40;;;26.50;94.70;;;;;;5118849;28;20083;-51
2023/01/10 02:00:29;;;;;;;21.92;10.43;;;26.50;94.70;;;;;;5115584;28;20115;-49
2023/01/10 02:02:59;;;;;;;17.80;14.32;;;26.50;94.70;;;;;;5117209;28;20027;-49
2023/01/10 02:05:26;;;;;;;17.67;13.52;;;26.50;94.70;;;;;;5124441;28;20315;-49
2023/01/10 02:07:56;;;;;;;20.45;13.50;;;26.50;94.70;;;;;;5124569;28;20055;-49
2023/01/10 02:10:56;;;;;;;21.42;11.77;;;26.50;94.70;;;;;;5124461;28;20036;-52
2023/01/10 02:13:25;;;;;;;14.02;7.20;;;26.40;94.70;;;;;;5105195;28;20031;-49
2023/01/10 02:15:53;;;;;;;14.00;7.40;;;26.40;94.70;;;;;;5113548;28;20036;-50
2023/01/10 02:18:21;;;;;;;12.95;7.28;;;26.40;94.80;;;;;;5103769;28;20227;-47
2023/01/10 02:20:54;;;;;;;13.85;6.22;;;26.40;94.80;;;;;;5103935;28;20048;-46
2023/01/10 02:23:29;;;;;;;11.20;6.28;;;26.30;94.80;;;;;;5106230;28;20062;-44
2023/01/10 02:26:33;;;;;;;9.82;5.70;;;26.30;94.80;;;;;;5108022;28;20067;-50
2023/01/10 02:29:28;;;;;;;13.10;5.43;;;26.30;94.90;;;;;;5108302;28;20203;-47
2023/01/10 02:32:31;;;;;;;9.00;5.05;;;26.20;94.90;;;;;;5107515;28;20032;-45
2023/01/10 02:35:01;;;;;;;9.55;4.65;;;26.30;95.00;;;;;;5107713;28;20379;-49
2023/01/10 02:37:40;;;;;;;9.88;5.15;;;26.30;94.90;;;;;;5107585;28;20042;-54
2023/01/10 02:40:25;;;;;;;9.00;4.28;;;26.30;94.90;;;;;;5116913;28;20066;-49
2023/01/10 02:43:09;;;;;;;10.98;4.30;;;26.30;94.90;;;;;;5128370;28;20031;-46
2023/01/10 02:45:45;;;;;;;15.27;4.22;;;26.30;94.90;;;;;;5127996;28;20046;-45
2023/01/10 02:48:11;;;;;;;11.32;4.18;;;26.30;95.00;;;;;;5128229;28;20023;-48
2023/01/10 02:50:41;;;;;;;8.45;3.60;;;26.30;95.00;;;;;;5128028;28;20034;-46
2023/01/10 02:53:35;;;;;;;10.60;3.75;;;26.30;95.00;;;;;;5109768;28;20296;-49
2023/01/10 02:56:31;;;;;;;8.32;3.85;;;26.30;95.00;;;;;;5127689;28;20028;-49
2023/01/10 02:59:06;;;;;;;11.65;3.88;;;26.30;95.00;;;;;;5128180;28;20034;-47
2023/01/10 03:02:03;;;;;;;11.48;4.15;;;26.30;95.10;;;;;;5127620;28;20055;-49
2023/01/10 03:04:32;;;;;;;14.57;4.07;;;26.30;95.10;;;;;;5127586;28;20077;-50
2023/01/10 03:07:23;;;;;;;5.97;3.15;;;26.30;95.00;;;;;;5127610;28;20023;-48
2023/01/10 03:10:01;;;;;;;8.85;3.78;;;26.30;95.00;;;;;;5125672;28;20099;-47
2023/01/10 03:12:56;;;;;;;7.40;3.85;;;26.30;95.20;;;;;;5117442;28;20102;-49
2023/01/10 03:15:27;;;;;;;9.38;3.78;;;26.30;94.90;;;;;;5119936;28;20044;-60
2023/01/10 03:17:57;;;;;;;8.05;3.58;;;26.30;94.80;;;;;;5127371;28;20026;-49
2023/01/10 03:20:26;;;;;;;7.25;3.47;;;26.30;94.80;;;;;;5127110;28;20055;-49
2023/01/10 03:22:55;;;;;;;8.80;3.60;;;26.30;94.80;;;;;;5126857;28;20023;-49
2023/01/10 03:25:26;;;;;;;7.18;3.58;;;26.30;94.90;;;;;;5127412;28;20023;-48
2023/01/10 03:27:58;;;;;;;6.97;3.47;;;26.30;94.90;;;;;;5126025;28;20032;-47
2023/01/10 03:30:33;;;;;;;6.70;3.35;;;26.30;94.90;;;;;;5118627;28;20047;-49
2023/01/10 03:33:01;;;;;;;6.90;3.58;;;26.30;94.80;;;;;;5107149;28;20063;-49
2023/01/10 03:35:48;;;;;;;7.47;3.30;;;26.30;94.80;;;;;;5105291;28;20023;-53
2023/01/10 03:38:46;;;;;;;7.85;3.22;;;26.30;94.90;;;;;;5064075;28;20051;-48
2023/01/10 03:41:49;;;;;;;5.80;2.83;;;26.30;94.80;;;;;;5104802;28;20395;-49
2023/01/10 03:47:31;;;;;;;7.68;3.70;;;26.30;95.00;;;;;;5126901;28;20031;-48
2023/01/10 03:50:19;;;;;;;6.85;3.30;;;26.20;95.00;;;;;;5126560;28;20039;-49
2023/01/10 03:52:46;;;;;;;6.90;3.17;;;26.20;95.00;;;;;;5126581;28;20038;-49
2023/01/10 03:55:17;;;;;;;8.27;3.50;;;26.10;95.00;;;;;;5124689;28;20035;-51
2023/01/10 03:57:47;;;;;;;7.22;3.30;;;26.20;95.00;;;;;;5121387;28;20023;-52
2023/01/10 04:00:15;;;;;;;5.03;3.13;;;26.20;95.00;;;;;;5121637;28;20027;-46
2023/01/10 04:02:43;;;;;;;8.73;3.55;;;26.20;95.00;;;;;;5121279;28;20032;-51
2023/01/10 04:05:10;;;;;;;6.28;3.45;;;26.10;95.10;;;;;;5124691;28;20019;-49
2023/01/10 04:07:36;;;;;;;8.98;3.50;;;26.20;95.10;;;;;;5126335;28;20057;-49
2023/01/10 04:10:05;;;;;;;9.23;3.63;;;26.20;95.10;;;;;;5126375;28;20019;-50
2023/01/10 04:12:31;;;;;;;8.02;3.92;;;26.20;95.00;;;;;;5126676;28;20022;-54
2023/01/10 04:14:58;;;;;;;7.82;3.92;;;26.20;95.00;;;;;;5126336;28;20065;-49
2023/01/10 04:17:26;;;;;;;7.43;4.45;;;26.30;95.10;;;;;;5126323;28;20192;-49
2023/01/10 04:19:53;;;;;;;7.50;3.65;;;26.30;95.00;;;;;;5126093;28;20051;-50
2023/01/10 04:22:19;;;;;;;7.90;3.83;;;26.30;94.90;;;;;;5116782;28;20031;-53
2023/01/10 04:24:47;;;;;;;8.15;3.85;;;26.30;94.90;;;;;;5123740;28;20212;-49
2023/01/10 04:27:13;;;;;;;10.23;5.20;;;26.30;94.90;;;;;;5125997;28;20039;-52
2023/01/10 04:29:41;;;;;;;13.30;5.05;;;26.30;94.90;;;;;;5126199;28;20055;-51
2023/01/10 04:32:08;;;;;;;10.48;5.45;;;26.30;95.00;;;;;;5126043;28;20311;-56
2023/01/10 04:34:34;;;;;;;12.45;5.55;;;26.30;95.10;;;;;;5126080;28;20088;-52
2023/01/10 04:37:01;;;;;;;11.13;5.30;;;26.20;95.00;;;;;;5125662;28;20027;-52
2023/01/10 04:39:27;;;;;;;8.73;4.80;;;26.20;95.00;;;;;;5125952;28;20046;-51
2023/01/10 04:41:54;;;;;;;9.68;5.00;;;26.20;95.00;;;;;;5125909;28;20271;-49
2023/01/10 04:44:21;;;;;;;11.20;5.32;;;26.20;95.00;;;;;;5126066;28;20042;-51
2023/01/10 04:46:47;;;;;;;8.93;5.32;;;26.20;94.90;;;;;;5124881;28;20031;-50
2023/01/10 04:49:14;;;;;;;12.32;6.00;;;26.20;95.00;;;;;;5126119;28;20270;-48
2023/01/10 04:51:41;;;;;;;12.32;6.13;;;26.10;94.90;;;;;;5125514;28;20028;-51
2023/01/10 04:54:07;;;;;;;11.07;5.95;;;26.10;94.90;;;;;;5125946;28;20069;-50
2023/01/10 04:56:34;;;;;;;10.40;5.13;;;26.10;94.90;;;;;;5125474;28;20028;-52
2023/01/10 04:59:00;;;;;;;9.15;3.63;;;26.10;94.80;;;;;;5125739;28;20012;-50
2023/01/10 05:01:27;;;;;;;9.52;3.83;;;26.20;94.80;;;;;;5125283;28;20035;-52
2023/01/10 05:03:55;;;;;;;9.63;3.55;;;26.20;94.80;;;;;;5125419;28;20344;-57
2023/01/10 05:06:23;;;;;;;10.25;3.03;;;26.20;94.80;;;;;;5125171;28;20027;-54
2023/01/10 05:08:50;;;;;;;9.80;3.20;;;26.20;94.70;;;;;;5125420;28;20023;-53
2023/01/10 05:11:16;;;;;;;4.80;2.92;;;26.20;94.70;;;;;;5124999;28;20026;-52
2023/01/10 05:13:43;;;;;;;8.90;3.50;;;26.10;94.70;;;;;;5125487;28;20181;-49
2023/01/10 05:16:09;;;;;;;7.32;3.22;;;26.10;94.70;;;;;;5124928;28;20063;-44
2023/01/10 05:18:36;;;;;;;5.25;3.05;;;26.10;94.60;;;;;;5125424;28;20072;-48
2023/01/10 05:21:11;;;;;;;6.22;2.65;;;26.10;94.60;;;;;;5124947;28;20053;-49
2023/01/10 05:23:39;;;;;;;9.40;2.65;;;26.10;94.60;;;;;;5125362;28;20062;-47
2023/01/10 05:26:11;;;;;;;6.88;2.28;;;26.10;94.60;;;;;;5125020;28;20040;-49
2023/01/10 05:28:37;;;;;;;;;;;26.10;94.50;;;;;;5125495;28;20087;-53
2023/01/10 05:31:09;;;;;;;8.63;2.40;;;26.10;94.50;;;;;;5124867;28;19911;-51
2023/01/10 05:33:35;;;;;;;7.43;2.33;;;26.10;94.60;;;;;;5125100;28;20023;-50
2023/01/10 05:36:04;;;;;;;5.57;2.00;;;26.10;94.60;;;;;;5124603;28;20024;-48
2023/01/10 05:38:32;;;;;;;6.43;2.28;;;26.10;94.60;;;;;;5125004;28;20086;-47
2023/01/10 05:40:59;;;;;;;7.72;2.20;;;26.10;94.60;;;;;;5124693;28;20023;-49
2023/01/10 05:43:27;;;;;;;10.70;2.80;;;26.10;94.60;;;;;;5124930;28;20307;-53
2023/01/10 05:45:53;;;;;;;7.95;2.60;;;26.10;94.60;;;;;;5124685;28;20079;-50
2023/01/10 05:48:20;;;;;;;8.13;2.55;;;26.10;94.60;;;;;;5124509;28;20051;-51
2023/01/10 05:50:49;;;;;;;7.03;2.42;;;26.10;94.60;;;;;;5124443;28;20024;-51
2023/01/10 05:53:16;;;;;;;7.68;2.70;;;26.10;94.70;;;;;;5124719;28;20248;-54
2023/01/10 05:55:43;;;;;;;7.50;2.20;;;26.10;94.70;;;;;;5124472;28;20019;-49
2023/01/10 05:58:10;;;;;;;7.18;2.08;;;26.10;94.60;;;;;;5124496;28;20087;-47
2023/01/10 06:00:38;;;;;;;5.85;2.13;;;26.10;94.70;;;;;;5124452;28;20481;-50
2023/01/10 06:03:05;;;;;;;6.88;2.53;;;26.10;94.70;;;;;;5124612;28;20027;-52
2023/01/10 06:05:31;;;;;;;6.15;2.40;;;26.10;94.60;;;;;;5124347;28;20031;-48
2023/01/10 06:07:58;;;;;;;5.88;2.22;;;26.10;94.70;;;;;;5124397;28;20026;-47
2023/01/10 06:10:25;;;;;;;8.48;2.20;;;26.10;94.70;;;;;;5124394;28;20030;-50
2023/01/10 06:12:51;;;;;;;7.47;2.53;;;26.10;94.70;;;;;;5124252;28;20100;-49
2023/01/10 06:15:18;;;;;;;15.45;2.95;;;26.10;94.70;;;;;;5124225;28;20020;-48
2023/01/10 06:17:44;;;;;;;11.70;2.85;;;26.10;94.70;;;;;;5124437;28;20032;-49
2023/01/10 06:20:14;;;;;;;8.63;2.45;;;26.10;94.70;;;;;;5123983;28;20055;-52
2023/01/10 06:22:42;;;;;;;10.95;2.60;;;26.10;94.60;;;;;;5124224;28;20031;-54
2023/01/10 06:25:11;;;;;;;7.25;2.22;;;26.10;94.60;;;;;;5124347;28;20051;-52
2023/01/10 06:27:42;;;;;;;6.22;2.30;;;26.10;94.60;;;;;;5124242;28;20252;-48
2023/01/10 06:30:11;;;;;;;12.55;2.33;;;26.10;94.60;;;;;;5124282;28;20334;-50
2023/01/10 06:32:39;;;;;;;13.32;2.50;;;26.10;94.50;;;;;;5124042;28;20308;-50
2023/01/10 06:35:06;;;;;;;6.05;1.95;;;26.10;94.50;;;;;;5123956;28;20261;-47
2023/01/10 06:37:33;;;;;;;8.52;2.13;;;26.10;94.50;;;;;;5124292;28;20027;-51
2023/01/10 06:39:59;;;;;;;10.95;2.15;;;26.10;94.40;;;;;;5124118;28;20023;-47
2023/01/10 06:42:26;;;;;;;7.05;2.47;;;26.10;94.40;;;;;;5123957;28;20032;-50
2023/01/10 06:44:52;;;;;;;7.53;2.22;;;26.10;94.30;;;;;;5123997;28;20072;-53
2023/01/10 06:47:19;;;;;;;9.38;2.53;;;26.10;94.30;;;;;;5124131;28;20224;-50
2023/01/10 06:49:46;;;;;;;8.35;2.13;;;26.10;94.30;;;;;;5124546;28;20055;-52
2023/01/10 06:52:12;;;;;;;6.85;2.40;;;26.10;94.30;;;;;;5123876;28;20016;-50
2023/01/10 06:54:40;;;;;;;8.10;2.30;;;26.10;94.20;;;;;;5124047;28;20095;-50
2023/01/10 06:57:07;;;;;;;6.45;1.98;;;26.10;94.20;;;;;;5120485;28;20023;-55
2023/01/10 06:59:34;;;;;;;9.20;2.33;;;26.10;94.10;;;;;;5112358;28;20039;-57
2023/01/10 07:02:01;;;;;;;4.45;2.22;;;26.10;94.10;;;;;;5117354;28;20038;-54
2023/01/10 07:04:27;;;;;;;4.53;2.00;;;26.10;94.10;;;;;;5123994;28;20058;-52
2023/01/10 07:06:54;;;;;;;8.27;2.30;;;26.10;94.00;;;;;;5123679;28;20035;-51
2023/01/10 07:09:20;;;;;;;6.45;2.17;;;26.10;93.90;;;;;;5126240;28;20016;-53
2023/01/10 07:11:47;;;;;;;6.07;2.10;;;26.10;93.90;;;;;;5127372;28;20039;-51
2023/01/10 07:14:13;;;;;;;8.23;2.10;;;26.10;93.80;;;;;;5109443;28;20020;-53
2023/01/10 07:16:40;;;;;;;7.32;2.60;;;26.10;93.70;;;;;;5124692;28;20046;-50
2023/01/10 07:19:06;;;;;;;5.97;2.00;;;26.10;93.60;;;;;;5114990;28;20032;-48
2023/01/10 07:21:33;;;;;;;8.98;2.20;;;26.10;93.70;;;;;;5117709;28;20091;-49
2023/01/10 07:23:59;;;;;;;6.72;1.90;;;26.10;93.70;;;;;;5114925;28;20212;-47
2023/01/10 07:26:26;;;;;;;5.95;2.08;;;26.10;93.70;;;;;;5117245;28;20224;-53
2023/01/10 07:28:53;;;;;;;6.47;2.00;;;26.10;93.70;;;;;;5115961;28;20035;-47
2023/01/10 07:31:22;;;;;;;6.10;2.05;;;26.10;93.70;;;;;;5112234;28;20087;-49
2023/01/10 07:33:51;;;;;;;9.20;1.90;;;26.10;93.80;;;;;;5120177;28;20087;-49
2023/01/10 07:36:17;;;;;;;5.88;2.05;;;26.10;93.70;;;;;;5106708;28;20035;-49
2023/01/10 07:38:44;;;;;;;7.22;2.20;;;26.10;93.80;;;;;;5106955;28;20034;-53
2023/01/10 07:41:11;;;;;;;5.95;2.20;;;26.00;93.80;;;;;;5106418;28;20024;-50
2023/01/10 07:43:37;;;;;;;7.28;2.08;;;26.00;93.80;;;;;;5106987;28;20035;-57
2023/01/10 07:46:10;;;;;;;5.50;2.08;;;26.10;93.80;;;;;;5106448;28;20073;-49
2023/01/10 07:48:40;;;;;;;7.13;2.10;;;26.10;93.80;;;;;;5106635;28;20055;-53
2023/01/10 07:51:06;;;;;;;7.07;2.42;;;26.10;93.70;;;;;;5106559;28;20024;-47
2023/01/10 07:53:33;;;;;;;6.32;2.10;;;26.10;93.80;;;;;;5106580;28;20051;-54
2023/01/10 07:56:02;;;;;;;10.63;2.40;;;26.10;93.80;;;;;;5106150;28;20028;-53
2023/01/10 07:58:29;;;;;;;7.75;2.20;;;26.10;93.70;;;;;;5106490;28;20022;-55
2023/01/10 08:01:00;;;;;;;4.50;1.80;;;26.10;93.70;;;;;;5106413;28;20036;-50
2023/01/10 08:03:28;;;;;;;7.78;2.38;;;26.10;93.70;;;;;;5106244;28;20138;-51
2023/01/10 08:06:05;;;;;;;5.95;2.08;;;26.10;93.70;;;;;;5105995;28;20033;-46
2023/01/10 08:08:35;;;;;;;6.07;1.90;;;26.10;93.60;;;;;;5106061;28;20051;-54
2023/01/10 08:11:02;;;;;;;5.75;2.38;;;26.00;93.60;;;;;;5105885;28;20389;-56
2023/01/10 08:13:29;;;;;;;7.07;1.77;;;26.10;93.70;;;;;;5110471;28;20043;-50
2023/01/10 08:15:56;;;;;;;5.78;1.92;;;26.00;93.70;;;;;;5114684;28;20250;-50
2023/01/10 08:18:24;;;;;;;8.73;2.30;;;26.00;93.80;;;;;;5110093;28;20030;-54
2023/01/10 08:20:51;;;;;;;5.43;2.00;;;26.00;93.80;;;;;;5104452;28;20120;-50
2023/01/10 08:23:19;;;;;;;6.22;2.00;;;26.00;93.90;;;;;;5106021;28;20050;-53
2023/01/10 08:25:46;;;;;;;7.68;1.95;;;26.00;93.90;;;;;;5105813;28;20031;-53
2023/01/10 08:28:13;;;;;;;7.75;2.00;;;26.00;93.90;;;;;;5105972;28;20318;-51
2023/01/10 08:30:40;;;;;;;5.90;2.00;;;26.00;93.90;;;;;;5105415;28;20032;-57
2023/01/10 08:33:07;;;;;;;5.15;1.80;;;26.00;93.90;;;;;;5105802;28;20087;-51
2023/01/10 08:35:42;;;;;;;6.15;2.10;;;26.00;93.90;;;;;;5105505;28;20031;-50
2023/01/10 08:38:10;;;;;;;10.18;2.30;;;26.00;93.90;;;;;;5105460;28;20087;-49
2023/01/10 08:40:37;;;;;;;7.53;1.90;;;26.00;94.00;;;;;;5105395;28;20295;-46
2023/01/10 08:43:06;;;;;;;5.13;2.22;;;26.00;94.00;;;;;;5105525;28;20047;-50
2023/01/10 08:45:34;;;;;;;6.20;2.17;;;26.00;94.00;;;;;;5105221;28;20099;-48
2023/01/10 08:48:01;;;;;;;5.13;2.25;;;26.00;94.00;;;;;;5105482;28;20028;-53
2023/01/10 08:50:27;;;;;;;7.82;2.50;;;26.00;94.00;;;;;;5105062;28;20043;-51
2023/01/10 08:52:56;;;;;;;7.43;2.80;;;26.00;94.00;;;;;;5105154;28;20087;-47
2023/01/10 08:55:23;;;;;;;5.68;2.28;;;26.00;94.00;;;;;;5105158;28;20020;-52
2023/01/10 08:57:49;;;;;;;6.82;2.30;;;26.00;94.00;;;;;;5105109;28;20054;-53
2023/01/10 09:00:16;;;;;;;5.78;2.33;;;26.00;94.00;;;;;;5104895;28;20040;-50
2023/01/10 09:02:43;;;;;;;6.75;2.50;;;26.00;94.00;;;;;;5104889;28;20035;-49
2023/01/10 09:05:10;;;;;;;5.15;2.40;;;26.00;94.10;;;;;;5104862;28;20317;-48
2023/01/10 09:07:40;;;;;;;7.00;2.70;;;26.00;94.10;;;;;;5104585;28;20055;-50
2023/01/10 09:10:08;;;;;;;8.75;2.78;;;26.00;94.10;;;;;;5109498;28;20095;-54
2023/01/10 09:15:20;;;;;;;8.63;2.88;;;26.00;94.00;;;;;;5111955;28;20039;-55
2023/01/10 09:17:48;;;;;;;10.18;2.65;;;26.00;94.00;;;;;;5115704;28;20242;-50
2023/01/10 09:20:15;;;;;;;5.97;2.72;;;26.00;94.00;;;;;;5104983;28;20127;-50
2023/01/10 09:22:42;;;;;;;7.10;2.75;;;26.00;94.00;;;;;;5111954;28;20023;-51
2023/01/10 09:25:10;;;;;;;6.07;2.60;;;26.00;94.00;;;;;;5118635;28;20028;-45
2023/01/10 09:27:36;;;;;;;7.30;2.80;;;26.00;94.10;;;;;;5113630;28;20034;-52
2023/01/10 09:30:04;;;;;;;9.23;3.13;;;26.00;94.10;;;;;;5112947;28;20067;-51
2023/01/10 09:32:31;;;;;;;9.38;2.55;;;25.90;94.10;;;;;;5112078;28;20031;-50
2023/01/10 09:34:57;;;;;;;7.13;2.60;;;26.00;94.10;;;;;;5115068;28;20024;-52
2023/01/10 09:37:24;;;;;;;7.18;3.13;;;26.00;94.00;;;;;;5111597;28;20035;-51
2023/01/10 09:39:51;;;;;;;8.02;2.83;;;26.00;94.00;;;;;;5124748;28;20030;-51
2023/01/10 09:42:49;;;;;;;5.30;2.80;;;26.00;94.00;;;;;;5124468;28;20031;-54
2023/01/10 09:45:33;;;;;;;7.10;2.90;;;26.00;94.00;;;;;;5124660;28;20090;-51
2023/01/10 09:48:08;;;;;;;7.63;3.05;;;26.00;94.00;;;;;;5124807;28;20340;-51
2023/01/10 09:50:44;;;;;;;9.43;2.70;;;26.00;94.00;;;;;;5124392;28;20039;-51
2023/01/10 09:53:32;;;;;;;9.43;2.80;;;26.00;94.00;;;;;;5124947;28;20353;-52
2023/01/10 09:56:00;;;;;;;6.35;2.92;;;26.00;94.00;;;;;;5124377;28;20347;-51
2023/01/10 09:58:30;;;;;;;5.78;3.03;;;26.00;94.00;;;;;;5124745;28;20280;-50
2023/01/10 10:00:57;;;;;;;6.13;3.22;;;26.00;94.00;;;;;;5124468;28;20039;-53
2023/01/10 10:03:36;;;;;;;7.72;3.30;;;26.00;94.00;;;;;;5124638;28;20081;-50
2023/01/10 10:06:03;;;;;;;10.85;3.50;;;26.00;94.00;;;;;;5124364;28;20323;-46
2023/01/10 10:08:30;;;;;;;6.28;3.35;;;26.00;94.00;;;;;;5124617;28;20087;-46
2023/01/10 10:10:57;;;;;;;9.60;3.45;;;26.00;94.00;;;;;;5117336;28;20150;-50
2023/01/10 10:13:45;;;;;;;9.30;3.47;;;26.00;94.00;;;;;;5111372;28;20237;-49
2023/01/10 10:16:35;;;;;;;6.47;3.30;;;26.00;94.00;;;;;;5103930;28;20063;-50
2023/01/10 10:19:41;;;;;;;8.23;2.75;;;26.00;94.00;;;;;;5104200;28;20031;-53
2023/01/10 10:22:29;;;;;;;7.38;2.63;;;25.90;93.90;;;;;;5089727;28;20099;-50
2023/01/10 10:25:36;;;;;;;5.18;2.30;;;25.90;93.90;;;;;;5103631;28;20098;-48
2023/01/10 10:28:30;;;;;;;6.80;2.75;;;25.90;93.90;;;;;;5104187;28;20028;-55
2023/01/10 10:31:34;;;;;;;6.50;2.38;;;25.90;93.90;;;;;;5103676;28;20044;-56
2023/01/10 10:34:23;;;;;;;4.05;2.40;;;25.90;93.90;;;;;;5104037;28;20024;-45
2023/01/10 10:37:32;;;;;;;4.63;2.17;;;25.90;93.90;;;;;;5103711;28;20032;-48
2023/01/10 10:40:07;;;;;;;6.97;2.70;;;25.90;93.90;;;;;;5111092;28;20038;-52
2023/01/10 10:42:46;;;;;;;5.60;2.38;;;25.90;93.90;;;;;;5124150;28;20028;-50
2023/01/10 10:45:21;;;;;;;6.03;2.38;;;25.90;94.00;;;;;;5127846;28;20035;-47
2023/01/10 10:48:02;;;;;;;4.78;2.40;;;26.00;94.00;;;;;;5127924;28;20047;-49
2023/01/10 10:50:33;;;;;;;6.85;2.40;;;25.90;93.80;;;;;;5128005;28;20089;-49
2023/01/10 10:53:02;;;;;;;5.75;2.33;;;25.90;93.70;;;;;;5127940;28;20094;-47
2023/01/10 10:55:35;;;;;;;7.93;2.08;;;25.90;93.50;;;;;;5124618;28;20319;-55
2023/01/10 10:58:04;;;;;;;6.90;2.30;;;25.90;93.50;;;;;;5126983;28;20024;-53
2023/01/10 11:00:31;;;;;;;6.82;1.80;;;25.90;93.40;;;;;;5126225;28;20262;-48
2023/01/10 11:03:39;;;;;;;7.53;2.15;;;25.90;93.40;;;;;;5124742;28;20068;-53
2023/01/10 11:06:08;;;;;;;7.03;1.92;;;25.90;93.40;;;;;;5127564;28;20068;-54
2023/01/10 11:08:42;;;;;;;8.23;1.98;;;25.90;93.30;;;;;;5108972;28;20058;-53
2023/01/10 11:11:26;;;;;;;8.07;1.90;;;25.90;93.30;;;;;;5090352;28;20387;-51
2023/01/10 11:14:01;;;;;;;6.57;1.92;;;25.90;93.30;;;;;;5108088;28;20239;-53
2023/01/10 11:16:35;;;;;;;7.00;1.98;;;25.90;93.30;;;;;;5125249;28;20189;-53
2023/01/10 11:19:23;;;;;;;8.05;2.00;;;25.90;93.30;;;;;;5127713;28;20207;-52
2023/01/10 11:22:00;;;;;;;6.00;2.05;;;25.90;93.60;;;;;;5126789;28;20091;-50
2023/01/10 11:24:49;;;;;;;4.40;2.15;;;25.90;93.30;;;;;;5127635;28;20023;-50
2023/01/10 11:27:32;;;;;;;6.88;2.30;;;25.90;93.40;;;;;;5129040;28;20016;-47
2023/01/10 11:30:23;;;;;;;5.75;2.03;;;25.90;93.40;;;;;;5127156;28;20058;-51
2023/01/10 11:32:53;;;;;;;3.40;1.73;;;25.90;93.40;;;;;;5084432;28;20063;-48
2023/01/10 11:35:27;;;;;;;5.50;2.03;;;25.90;93.40;;;;;;5084592;28;20042;-50
2023/01/10 11:38:20;;;;;;;7.43;2.60;;;25.90;93.50;;;;;;5084577;28;20029;-51
2023/01/10 11:41:19;;;;;;;7.15;2.45;;;25.90;93.50;;;;;;5084514;28;20044;-59
2023/01/10 11:43:45;;;;;;;7.60;2.53;;;25.90;93.60;;;;;;5069969;28;20032;-53
2023/01/10 11:46:24;;;;;;;5.57;2.50;;;25.90;93.70;;;;;;5082930;28;20056;-47
2023/01/10 11:48:58;;;;;;;8.75;2.47;;;25.90;93.60;;;;;;5070915;28;20040;-52
2023/01/10 11:51:28;;;;;;;7.72;2.60;;;25.90;93.60;;;;;;5081824;28;20080;-48
2023/01/10 11:54:28;;;;;;;6.57;2.72;;;25.90;93.60;;;;;;5083317;28;20083;-55
2023/01/10 11:56:59;;;;;;;8.82;3.10;;;25.90;93.60;;;;;;5084122;28;20044;-50
2023/01/10 11:59:27;;;;;;;8.38;2.90;;;25.90;93.70;;;;;;5084153;28;20125;-52
2023/01/10 12:01:59;;;;;;;10.20;3.08;;;25.90;93.70;;;;;;5084034;28;20028;-49
2023/01/10 12:04:28;;;;;;;11.40;2.90;;;25.90;93.80;;;;;;5083030;28;20039;-52
2023/01/10 12:07:07;;;;;;;8.68;3.30;;;25.90;93.70;;;;;;5081696;28;20044;-53
2023/01/10 12:09:35;;;;;;;12.73;3.05;;;25.90;93.80;;;;;;5094927;28;20058;-50
2023/01/10 12:12:04;;;;;;;5.15;2.75;;;25.90;93.70;;;;;;5126548;28;20295;-52
2023/01/10 12:14:31;;;;;;;6.22;2.47;;;25.90;93.60;;;;;;5126762;28;20031;-50
2023/01/10 12:17:02;;;;;;;7.53;2.72;;;25.90;93.60;;;;;;5125441;28;20015;-53
2023/01/10 12:19:29;;;;;;;6.17;2.80;;;25.90;93.70;;;;;;5120959;28;20046;-49
2023/01/10 12:22:04;;;;;;;8.98;3.13;;;25.90;93.80;;;;;;5105872;28;20035;-52
2023/01/10 12:24:35;;;;;;;7.10;2.83;;;25.90;93.90;;;;;;5110749;28;20039;-49
2023/01/10 12:27:04;;;;;;;6.70;2.78;;;25.90;94.00;;;;;;5123704;28;20323;-49
2023/01/10 12:29:40;;;;;;;9.70;2.85;;;25.90;94.00;;;;;;5122571;28;20117;-53
2023/01/10 12:32:23;;;;;;;5.55;2.45;;;25.90;94.00;;;;;;5105190;28;20026;-57
2023/01/10 12:35:00;;;;;;;9.95;2.60;;;25.90;94.10;;;;;;5105412;28;20092;-55
2023/01/10 12:37:52;;;;;;;4.45;2.50;;;26.00;94.10;;;;;;5117782;28;20034;-53
2023/01/10 12:40:30;;;;;;;;;;;25.90;94.10;;;;;;5126108;28;20031;-48
2023/01/10 12:46:18;;;;;;;8.13;3.20;;;26.00;94.30;;;;;;5107182;28;20031;-48
2023/01/10 12:49:00;;;;;;;10.10;3.33;;;26.00;94.30;;;;;;5112422;28;20058;-46
2023/01/10 12:51:29;;;;;;;8.40;3.50;;;26.00;94.30;;;;;;5125579;28;20039;-49
2023/01/10 12:54:03;;;;;;;10.18;3.20;;;26.00;94.30;;;;;;5108662;28;20028;-51
2023/01/10 12:56:31;;;;;;;7.57;3.10;;;26.00;94.30;;;;;;5105105;28;20031;-45
2023/01/10 12:59:10;;;;;;;7.15;3.33;;;26.00;94.30;;;;;;5105429;28;20091;-43
2023/01/10 13:01:42;;;;;;;9.27;3.10;;;26.10;94.30;;;;;;5106510;28;20023;-47
2023/01/10 13:04:17;;;;;;;5.80;2.70;;;26.10;94.30;;;;;;5122694;28;20026;-50
2023/01/10 13:06:44;;;;;;;8.20;2.80;;;26.10;94.30;;;;;;5124714;28;20043;-51
2023/01/10 13:09:20;;;;;;;8.82;3.03;;;26.10;94.30;;;;;;5124236;28;20222;-58
2023/01/10 13:12:02;;;;;;;6.30;2.90;;;26.10;94.30;;;;;;5105150;28;20016;-53
2023/01/10 13:14:43;;;;;;;5.20;2.53;;;26.10;94.40;;;;;;5105360;28;20246;-47
2023/01/10 13:17:31;;;;;;;5.85;2.80;;;26.10;94.30;;;;;;5105089;28;20020;-50
2023/01/10 13:20:16;;;;;;;6.75;2.97;;;26.10;94.40;;;;;;5104989;28;20047;-55
2023/01/10 13:22:50;;;;;;;6.30;2.90;;;26.10;94.40;;;;;;5104867;28;20023;-51
2023/01/10 13:25:26;;;;;;;10.40;4.78;;;26.20;94.50;;;;;;5118181;28;20072;-50
2023/01/10 13:28:03;;;;;;;8.77;4.78;;;26.20;94.60;;;;;;5112354;28;20028;-51